Time;durP1;ratioP1;P1;durP2;ratioP2;P2;SDS_P1;SDS_P2;PMS_P1;PMS_P2;Temp;Humidity;BMP_temperature;BMP_pressure;BME280_temperature;BME280_humidity;BME280_pressure;Samples;Min_cycle;Max_cycle;Signal;HPM_P1;HPM_P2
2023/07/10 00:01:35;;;;;;;12.77;12.23;;;25.20;99.90;;;;;;5064570;28;21007;-79
2023/07/10 00:04:14;;;;;;;12.87;12.20;;;25.20;99.90;;;;;;5064499;28;20439;-79
2023/07/10 00:06:42;;;;;;;12.73;12.13;;;25.20;99.90;;;;;;5063562;28;20454;-80
2023/07/10 00:09:10;;;;;;;12.70;12.10;;;25.20;99.90;;;;;;5060237;28;20462;-79
2023/07/10 00:11:39;;;;;;;13.43;12.43;;;25.20;99.90;;;;;;5063632;28;20500;-78
2023/07/10 00:14:17;;;;;;;12.07;11.57;;;25.20;99.90;;;;;;5063019;28;20550;-79
2023/07/10 00:16:45;;;;;;;12.40;11.83;;;25.20;99.90;;;;;;5065227;28;20446;-81
2023/07/10 00:19:15;;;;;;;11.87;11.07;;;25.20;99.90;;;;;;5062862;28;20475;-80
2023/07/10 00:21:45;;;;;;;12.10;11.27;;;25.20;99.90;;;;;;5061114;28;20520;-79
2023/07/10 00:24:13;;;;;;;11.73;11.17;;;25.10;99.90;;;;;;5059751;28;20451;-80
2023/07/10 00:26:42;;;;;;;12.30;11.70;;;25.10;99.90;;;;;;5064273;28;20923;-80
2023/07/10 00:29:17;;;;;;;12.13;11.63;;;25.10;99.90;;;;;;5064368;28;20500;-79
2023/07/10 00:31:45;;;;;;;13.33;12.67;;;25.00;99.90;;;;;;5062865;28;20474;-78
2023/07/10 00:34:15;;;;;;;13.17;12.57;;;24.80;99.90;;;;;;5062587;28;20512;-79
2023/07/10 00:36:43;;;;;;;14.13;13.33;;;24.70;99.90;;;;;;5063612;28;20461;-80
2023/07/10 00:39:20;;;;;;;13.73;13.03;;;24.70;99.90;;;;;;5061459;28;20466;-80
2023/07/10 00:41:52;;;;;;;13.20;12.57;;;24.60;99.90;;;;;;5061792;28;20474;-78
2023/07/10 00:44:24;;;;;;;13.50;12.80;;;24.50;99.90;;;;;;5058765;28;20454;-82
2023/07/10 00:46:56;;;;;;;13.80;13.07;;;24.50;99.90;;;;;;5059702;28;20493;-79
2023/07/10 00:49:32;;;;;;;13.40;12.77;;;24.50;99.90;;;;;;5059317;28;20504;-79
2023/07/10 00:52:05;;;;;;;14.60;13.70;;;24.50;99.90;;;;;;5061808;28;20471;-78
2023/07/10 00:54:36;;;;;;;13.80;12.97;;;24.40;99.90;;;;;;5061155;28;20983;-78
2023/07/10 00:57:10;;;;;;;13.63;12.87;;;24.40;99.90;;;;;;5060928;28;20455;-78
2023/07/10 00:59:40;;;;;;;13.90;13.10;;;24.50;99.90;;;;;;5060042;28;20501;-79
2023/07/10 01:02:24;;;;;;;12.87;12.30;;;24.50;99.90;;;;;;5062838;28;20482;-79
2023/07/10 01:05:02;;;;;;;13.43;12.83;;;24.40;99.90;;;;;;5061202;28;20455;-79
2023/07/10 01:07:35;;;;;;;14.10;13.43;;;24.30;99.90;;;;;;5061180;28;20446;-79
2023/07/10 01:10:07;;;;;;;13.67;12.70;;;24.40;99.90;;;;;;5062801;28;20808;-79
2023/07/10 01:12:36;;;;;;;13.73;13.07;;;24.40;99.90;;;;;;5064289;28;20446;-78
2023/07/10 01:15:07;;;;;;;13.87;12.90;;;24.30;99.90;;;;;;5061097;28;20979;-80
2023/07/10 01:17:35;;;;;;;14.43;13.53;;;24.40;99.90;;;;;;5059718;28;20486;-79
2023/07/10 01:20:22;;;;;;;14.13;13.30;;;24.40;99.90;;;;;;5060898;28;20470;-81
2023/07/10 01:22:51;;;;;;;15.10;14.40;;;24.40;99.90;;;;;;5076433;28;20462;-78
2023/07/10 01:25:20;;;;;;;14.60;13.80;;;24.40;99.90;;;;;;5060631;28;20991;-79
2023/07/10 01:27:48;;;;;;;13.73;12.83;;;24.50;99.90;;;;;;5061910;28;20450;-80
2023/07/10 01:30:23;;;;;;;13.90;13.10;;;24.40;99.90;;;;;;5063319;28;20469;-82
2023/07/10 01:32:52;;;;;;;13.23;12.67;;;24.40;99.90;;;;;;5063573;28;20855;-80
2023/07/10 01:35:22;;;;;;;13.13;12.50;;;24.30;99.90;;;;;;5058676;28;20457;-81
2023/07/10 01:37:51;;;;;;;15.07;14.00;;;24.30;99.90;;;;;;5061304;28;20442;-80
2023/07/10 01:40:25;;;;;;;13.73;13.13;;;24.30;99.90;;;;;;5060731;28;21072;-79
2023/07/10 01:42:56;;;;;;;14.30;13.43;;;24.20;99.90;;;;;;5063641;28;20530;-80
2023/07/10 01:45:25;;;;;;;14.87;13.97;;;24.20;99.90;;;;;;5060847;28;20454;-80
2023/07/10 01:47:54;;;;;;;14.33;13.47;;;24.20;99.90;;;;;;5060601;28;20994;-81
2023/07/10 01:50:23;;;;;;;14.37;13.60;;;24.30;99.90;;;;;;5062005;28;20569;-81
2023/07/10 01:52:52;;;;;;;13.77;12.90;;;24.30;99.90;;;;;;5060422;28;20508;-80
2023/07/10 01:55:21;;;;;;;14.53;13.63;;;24.20;99.90;;;;;;5061408;28;21095;-84
2023/07/10 01:57:49;;;;;;;14.23;13.43;;;24.20;99.90;;;;;;5060440;28;20499;-79
2023/07/10 02:00:18;;;;;;;14.13;13.33;;;24.20;99.90;;;;;;5058588;28;20482;-81
2023/07/10 02:02:46;;;;;;;14.60;13.80;;;24.10;99.90;;;;;;5062996;28;20450;-80
2023/07/10 02:05:14;;;;;;;13.77;13.17;;;24.10;99.90;;;;;;5061964;28;20474;-80
2023/07/10 02:07:42;;;;;;;14.60;13.80;;;24.10;99.90;;;;;;5062157;28;20459;-80
2023/07/10 02:10:12;;;;;;;13.77;13.03;;;24.10;99.90;;;;;;5059295;28;20473;-82
2023/07/10 02:12:40;;;;;;;14.40;13.60;;;24.10;99.90;;;;;;5059899;28;20470;-80
2023/07/10 02:15:09;;;;;;;14.40;13.50;;;24.10;99.90;;;;;;5061185;28;20535;-79
2023/07/10 02:17:37;;;;;;;14.10;13.50;;;24.10;99.90;;;;;;5059502;28;20462;-81
2023/07/10 02:20:06;;;;;;;14.57;13.60;;;24.10;99.90;;;;;;5062119;28;20474;-82
2023/07/10 02:22:35;;;;;;;14.50;13.80;;;24.10;99.90;;;;;;5060316;28;20454;-80
2023/07/10 02:25:03;;;;;;;14.70;13.90;;;24.10;99.90;;;;;;5061331;28;20459;-79
2023/07/10 02:27:32;;;;;;;14.10;13.43;;;24.20;99.90;;;;;;5057206;28;20467;-80
2023/07/10 02:30:00;;;;;;;14.17;13.37;;;24.20;99.90;;;;;;5060739;28;20446;-80
2023/07/10 02:32:29;;;;;;;14.30;13.60;;;24.20;99.90;;;;;;5061829;28;20459;-81
2023/07/10 02:34:57;;;;;;;14.70;13.40;;;24.10;99.90;;;;;;5062503;28;20454;-81
2023/07/10 02:37:25;;;;;;;14.90;13.90;;;24.10;99.90;;;;;;5060990;28;20499;-80
2023/07/10 02:39:53;;;;;;;14.40;13.70;;;24.20;99.90;;;;;;5060381;28;20482;-81
2023/07/10 02:42:23;;;;;;;14.13;13.43;;;24.20;99.90;;;;;;5060652;28;20838;-80
2023/07/10 02:44:52;;;;;;;15.00;14.10;;;24.30;99.90;;;;;;5058549;28;20471;-80
2023/07/10 02:47:20;;;;;;;15.03;13.93;;;24.30;99.90;;;;;;5058404;28;20435;-81
2023/07/10 02:49:48;;;;;;;14.67;14.00;;;24.30;99.90;;;;;;5059928;28;20474;-79
2023/07/10 02:52:16;;;;;;;13.80;13.20;;;24.40;99.90;;;;;;5058344;28;20457;-80
2023/07/10 02:54:44;;;;;;;15.60;14.50;;;24.30;99.90;;;;;;5060973;28;20454;-79
2023/07/10 02:57:12;;;;;;;15.13;14.33;;;24.30;99.90;;;;;;5061120;28;20450;-79
2023/07/10 02:59:41;;;;;;;14.93;14.13;;;24.20;99.90;;;;;;5060888;28;20462;-81
2023/07/10 03:02:10;;;;;;;15.27;14.47;;;24.20;99.90;;;;;;5057687;28;20999;-81
2023/07/10 03:04:38;;;;;;;15.67;14.87;;;24.10;99.90;;;;;;5063633;28;20446;-81
2023/07/10 03:07:07;;;;;;;15.13;14.43;;;24.10;99.90;;;;;;5065539;28;20578;-79
2023/07/10 03:09:35;;;;;;;14.93;14.23;;;24.10;99.90;;;;;;5065684;28;20450;-80
2023/07/10 03:12:04;;;;;;;15.50;14.80;;;24.10;99.90;;;;;;5058227;28;21043;-80
2023/07/10 03:14:32;;;;;;;15.30;14.60;;;24.10;99.90;;;;;;5064694;28;20446;-81
2023/07/10 03:17:00;;;;;;;15.27;14.50;;;24.10;99.90;;;;;;5064121;28;20838;-80
2023/07/10 03:19:31;;;;;;;14.57;13.87;;;24.10;99.90;;;;;;5065552;28;20870;-80
2023/07/10 03:21:59;;;;;;;15.43;14.50;;;24.10;99.90;;;;;;5060881;28;20583;-81
2023/07/10 03:24:27;;;;;;;15.07;14.43;;;24.10;99.90;;;;;;5062779;28;20458;-82
2023/07/10 03:26:55;;;;;;;15.30;14.50;;;24.10;99.90;;;;;;5063071;28;20523;-81
2023/07/10 03:29:23;;;;;;;15.70;14.90;;;24.10;99.90;;;;;;5064932;28;20456;-82
2023/07/10 03:31:51;;;;;;;15.00;14.20;;;24.00;99.90;;;;;;5064912;28;21019;-81
2023/07/10 03:34:19;;;;;;;16.17;14.93;;;24.00;99.90;;;;;;5063289;28;20975;-82
2023/07/10 03:36:50;;;;;;;15.90;15.00;;;23.90;99.90;;;;;;5064258;28;20458;-80
2023/07/10 03:39:18;;;;;;;15.07;14.40;;;23.90;99.90;;;;;;5061905;28;20462;-80
2023/07/10 03:41:46;;;;;;;14.67;13.97;;;24.00;99.90;;;;;;5062383;28;20504;-80
2023/07/10 03:44:14;;;;;;;16.23;15.53;;;24.00;99.90;;;;;;5063358;28;20500;-81
2023/07/10 03:46:42;;;;;;;16.60;15.60;;;23.90;99.90;;;;;;5063652;28;20925;-79
2023/07/10 03:49:11;;;;;;;16.10;15.30;;;23.90;99.90;;;;;;5065119;28;20462;-80
2023/07/10 03:51:39;;;;;;;17.83;16.37;;;23.90;99.90;;;;;;5062939;28;20478;-80
2023/07/10 03:54:08;;;;;;;16.33;15.50;;;23.90;99.90;;;;;;5061482;28;20469;-79
2023/07/10 03:56:37;;;;;;;16.57;15.77;;;23.90;99.90;;;;;;5061750;28;20509;-79
2023/07/10 03:59:09;;;;;;;16.20;15.50;;;23.90;99.90;;;;;;5065131;28;20455;-79
2023/07/10 04:01:39;;;;;;;17.23;16.03;;;23.80;99.90;;;;;;5052154;28;20482;-81
2023/07/10 04:04:07;;;;;;;17.07;16.10;;;23.80;99.90;;;;;;5065543;28;20458;-79
2023/07/10 04:06:35;;;;;;;16.60;15.80;;;23.80;99.90;;;;;;5064027;28;20861;-79
2023/07/10 04:09:03;;;;;;;16.87;16.00;;;23.80;99.90;;;;;;5065738;28;20472;-79
2023/07/10 04:11:33;;;;;;;17.30;16.40;;;23.80;99.90;;;;;;5065238;28;20473;-80
2023/07/10 04:14:01;;;;;;;17.20;16.40;;;23.80;99.90;;;;;;5060691;28;20459;-81
2023/07/10 04:16:30;;;;;;;17.63;16.73;;;23.80;99.90;;;;;;5064950;28;20511;-79
2023/07/10 04:18:58;;;;;;;17.57;16.77;;;23.80;99.90;;;;;;5065137;28;20446;-80
2023/07/10 04:21:29;;;;;;;16.50;15.80;;;23.80;99.90;;;;;;5062631;28;20484;-81
2023/07/10 04:23:57;;;;;;;16.43;15.73;;;23.80;99.90;;;;;;5060122;28;20458;-82
2023/07/10 04:26:27;;;;;;;18.63;17.30;;;23.80;99.90;;;;;;5066241;28;20462;-81
2023/07/10 04:28:59;;;;;;;17.40;16.50;;;23.80;99.90;;;;;;5065939;28;20450;-82
2023/07/10 04:31:27;;;;;;;16.70;15.90;;;23.80;99.90;;;;;;5063232;28;20662;-82
2023/07/10 04:33:57;;;;;;;17.57;16.67;;;23.90;99.90;;;;;;5055290;28;21554;-72
2023/07/10 04:36:26;;;;;;;17.60;16.60;;;23.90;99.90;;;;;;5059078;28;21139;-72
2023/07/10 04:38:54;;;;;;;17.23;16.33;;;23.90;99.90;;;;;;5063511;28;20451;-71
2023/07/10 04:41:25;;;;;;;18.10;17.07;;;24.00;99.90;;;;;;5060067;28;20482;-72
2023/07/10 04:43:53;;;;;;;17.33;16.63;;;23.90;99.90;;;;;;5061054;28;20454;-73
2023/07/10 04:46:23;;;;;;;17.07;16.17;;;24.00;99.90;;;;;;5059516;28;20450;-72
2023/07/10 04:48:51;;;;;;;17.30;16.40;;;23.90;99.90;;;;;;5065055;28;20451;-72
2023/07/10 04:51:20;;;;;;;17.60;16.70;;;23.80;99.90;;;;;;5063789;28;20558;-73
2023/07/10 04:53:49;;;;;;;17.47;16.57;;;23.90;99.90;;;;;;5058959;28;20447;-72
2023/07/10 04:56:19;;;;;;;18.13;17.10;;;24.00;99.90;;;;;;5058814;28;20454;-73
2023/07/10 04:58:49;;;;;;;18.50;17.60;;;24.10;99.90;;;;;;5059576;28;20890;-72
2023/07/10 05:01:18;;;;;;;18.30;17.40;;;24.20;99.90;;;;;;5060799;28;20494;-72
2023/07/10 05:03:48;;;;;;;19.60;18.17;;;24.20;99.90;;;;;;5060490;28;20461;-72
2023/07/10 05:06:17;;;;;;;18.87;17.50;;;24.20;99.90;;;;;;5059511;28;20505;-72
2023/07/10 05:08:46;;;;;;;18.47;17.50;;;24.20;99.90;;;;;;5062893;28;20455;-72
2023/07/10 05:11:14;;;;;;;18.37;17.47;;;24.20;99.90;;;;;;5064857;28;20597;-71
2023/07/10 05:13:43;;;;;;;18.87;18.07;;;24.10;99.90;;;;;;5052123;28;20493;-72
2023/07/10 05:16:11;;;;;;;20.77;19.37;;;24.20;99.90;;;;;;5063881;28;20454;-71
2023/07/10 05:18:39;;;;;;;18.00;17.20;;;24.20;99.90;;;;;;5059032;28;21019;-75
2023/07/10 05:21:08;;;;;;;18.50;17.60;;;24.40;99.90;;;;;;5058602;28;20470;-75
2023/07/10 05:23:36;;;;;;;18.27;17.37;;;24.40;99.90;;;;;;5054901;28;20463;-74
2023/07/10 05:26:08;;;;;;;17.60;16.70;;;24.40;99.90;;;;;;5062789;28;21063;-74
2023/07/10 05:28:37;;;;;;;18.40;17.57;;;24.40;99.90;;;;;;5060578;28;20533;-76
2023/07/10 05:31:07;;;;;;;18.90;17.60;;;24.40;99.90;;;;;;5058691;28;20482;-76
2023/07/10 05:33:37;;;;;;;19.10;18.10;;;24.40;99.90;;;;;;5060012;28;20830;-75
2023/07/10 05:36:13;;;;;;;19.50;18.60;;;24.50;99.90;;;;;;5061551;28;20459;-76
2023/07/10 05:38:42;;;;;;;19.33;18.13;;;24.50;99.90;;;;;;5060445;28;20457;-79
2023/07/10 05:41:10;;;;;;;19.33;18.30;;;24.60;99.90;;;;;;5063201;28;21168;-78
2023/07/10 05:43:39;;;;;;;19.27;18.27;;;24.50;99.90;;;;;;5059287;28;21190;-76
2023/07/10 05:46:07;;;;;;;18.70;17.67;;;24.50;99.90;;;;;;5063650;28;20434;-77
2023/07/10 05:48:36;;;;;;;19.67;18.40;;;24.50;99.90;;;;;;5061367;28;20455;-80
2023/07/10 05:51:04;;;;;;;19.00;18.00;;;24.40;99.90;;;;;;5062785;28;20462;-79
2023/07/10 05:53:34;;;;;;;18.37;17.37;;;24.40;99.90;;;;;;5056939;28;20455;-78
2023/07/10 05:56:04;;;;;;;19.33;18.17;;;24.50;99.90;;;;;;5061195;28;20546;-78
2023/07/10 05:58:34;;;;;;;19.13;18.03;;;24.50;99.90;;;;;;5062504;28;20455;-77
2023/07/10 06:01:03;;;;;;;18.60;17.60;;;24.50;99.90;;;;;;5075951;28;20511;-78
2023/07/10 06:03:33;;;;;;;19.13;18.23;;;24.60;99.90;;;;;;5057446;28;20589;-78
2023/07/10 06:06:03;;;;;;;19.33;18.43;;;24.70;99.90;;;;;;5056966;28;20451;-80
2023/07/10 06:08:35;;;;;;;18.50;17.63;;;24.70;99.90;;;;;;5056929;28;21142;-80
2023/07/10 06:11:05;;;;;;;18.87;18.00;;;24.70;99.90;;;;;;5058407;28;20477;-79
2023/07/10 06:13:33;;;;;;;18.90;17.93;;;24.70;99.90;;;;;;5059322;28;20465;-79
2023/07/10 06:16:06;;;;;;;19.40;18.40;;;24.80;99.90;;;;;;5058419;28;20512;-77
2023/07/10 06:18:36;;;;;;;19.00;18.10;;;24.80;99.90;;;;;;5059992;28;20805;-79
2023/07/10 06:21:05;;;;;;;20.03;18.93;;;24.80;99.90;;;;;;5053533;28;20466;-80
2023/07/10 06:23:35;;;;;;;20.43;19.23;;;24.90;99.90;;;;;;5060299;28;20475;-78
2023/07/10 06:26:04;;;;;;;19.37;18.23;;;25.00;99.90;;;;;;5056836;28;20442;-82
2023/07/10 06:28:35;;;;;;;19.87;18.87;;;25.00;99.90;;;;;;5052766;28;21300;-79
2023/07/10 06:31:06;;;;;;;18.60;17.70;;;25.10;99.90;;;;;;5059883;28;20475;-77
2023/07/10 06:33:35;;;;;;;20.03;19.00;;;25.10;99.90;;;;;;5061554;28;20457;-79
2023/07/10 06:36:04;;;;;;;19.33;18.43;;;25.10;99.90;;;;;;5061076;28;20454;-79
2023/07/10 06:38:35;;;;;;;20.27;19.23;;;25.20;99.90;;;;;;5059334;28;20467;-82
2023/07/10 06:56:32;;;;;;;19.40;18.37;;;25.40;99.90;;;;;;5045834;28;20824;-88
2023/07/10 07:09:02;;;;;;;20.20;18.87;;;25.50;99.90;;;;;;4963458;28;20458;-88
2023/07/10 07:11:31;;;;;;;19.13;18.13;;;25.60;99.90;;;;;;4949600;28;20499;-88
2023/07/10 07:14:00;;;;;;;18.73;17.73;;;25.70;99.90;;;;;;4943701;28;20505;-88
2023/07/10 07:16:28;;;;;;;18.70;18.00;;;25.70;99.90;;;;;;4946309;28;20468;-89
2023/07/10 07:18:57;;;;;;;17.97;17.30;;;25.70;99.90;;;;;;4942740;28;20474;-89
2023/07/10 07:21:39;;;;;;;19.30;18.50;;;25.80;99.90;;;;;;4944296;28;20571;-89
2023/07/10 07:24:07;;;;;;;18.60;17.70;;;25.80;99.90;;;;;;4942060;28;20595;-89
2023/07/10 07:26:37;;;;;;;19.57;18.50;;;25.80;99.90;;;;;;4943593;28;20465;-89
2023/07/10 07:29:06;;;;;;;17.80;17.10;;;25.80;99.90;;;;;;4949300;28;20489;-86
2023/07/10 07:31:34;;;;;;;19.60;18.70;;;25.90;99.90;;;;;;4970750;28;20865;-87
2023/07/10 07:38:54;;;;;;;20.13;19.03;;;25.90;99.90;;;;;;4946807;28;20450;-88
2023/07/10 07:41:22;;;;;;;19.50;18.70;;;25.90;99.90;;;;;;4950083;28;20881;-86
2023/07/10 07:44:08;;;;;;;19.23;18.30;;;26.00;99.90;;;;;;4943274;28;20484;-87
2023/07/10 07:51:36;;;;;;;19.30;18.50;;;26.10;99.90;;;;;;5132696;23;20497;-91
2023/07/10 07:54:28;;;;;;;19.50;18.47;;;26.10;99.90;;;;;;4970483;28;20562;-88
2023/07/10 07:57:12;;;;;;;20.37;18.87;;;26.10;99.90;;;;;;4956155;28;20486;-85
2023/07/10 08:06:48;;;;;;;19.53;18.43;;;26.40;99.90;;;;;;4880572;29;20502;-90
2023/07/10 08:09:17;;;;;;;19.57;18.63;;;26.40;99.90;;;;;;4908416;29;20474;-90
2023/07/10 08:14:47;;;;;;;19.37;18.27;;;26.50;99.90;;;;;;4932769;23;20503;-90
2023/07/10 08:17:40;;;;;;;18.60;17.80;;;26.50;99.90;;;;;;4905606;29;20872;-87
2023/07/10 08:27:05;;;;;;;18.97;18.10;;;26.50;99.90;;;;;;4924901;29;20510;-88
2023/07/10 08:29:35;;;;;;;19.03;17.83;;;26.60;99.90;;;;;;4930302;29;20452;-87
2023/07/10 08:32:04;;;;;;;20.47;19.17;;;26.70;99.90;;;;;;4907054;29;20498;-89
2023/07/10 08:34:32;;;;;;;19.33;18.63;;;26.80;99.90;;;;;;4905558;29;20466;-87
2023/07/10 08:37:04;;;;;;;18.80;18.00;;;26.80;99.90;;;;;;4905405;29;20465;-88
2023/07/10 08:39:36;;;;;;;18.93;17.93;;;26.90;99.90;;;;;;4904811;29;20485;-90
2023/07/10 08:42:16;;;;;;;18.80;18.00;;;26.90;99.90;;;;;;4921835;29;20997;-87
2023/07/10 08:44:46;;;;;;;19.97;18.90;;;26.90;99.90;;;;;;4902967;29;20490;-89
2023/07/10 08:47:18;;;;;;;19.50;18.73;;;26.90;99.90;;;;;;4906061;29;20461;-87
2023/07/10 08:49:53;;;;;;;18.97;18.17;;;27.00;99.90;;;;;;4906345;29;20815;-88
2023/07/10 08:52:33;;;;;;;19.80;18.90;;;27.00;99.90;;;;;;4899639;29;20564;-88
2023/07/10 08:55:01;;;;;;;19.73;18.67;;;27.10;99.90;;;;;;4899954;29;21134;-88
2023/07/10 08:57:36;;;;;;;19.63;18.80;;;27.10;99.90;;;;;;4907149;29;21349;-87
2023/07/10 09:00:08;;;;;;;19.70;18.67;;;27.10;99.90;;;;;;4905093;29;20545;-89
2023/07/10 09:02:40;;;;;;;19.67;18.77;;;27.10;99.90;;;;;;4903522;29;20465;-87
2023/07/10 09:05:14;;;;;;;19.80;18.93;;;27.20;99.90;;;;;;4897653;29;20598;-88
2023/07/10 09:07:44;;;;;;;21.07;19.97;;;27.30;99.90;;;;;;4904951;29;20579;-87
2023/07/10 09:10:19;;;;;;;20.10;19.07;;;27.40;99.90;;;;;;4901970;29;20553;-88
2023/07/10 09:12:52;;;;;;;21.50;19.90;;;27.50;99.90;;;;;;4901723;29;20853;-86
2023/07/10 09:15:25;;;;;;;19.90;19.10;;;27.60;99.90;;;;;;4904938;29;20690;-88
2023/07/10 09:18:00;;;;;;;20.60;19.40;;;27.60;99.90;;;;;;4900650;29;20467;-88
2023/07/10 09:20:29;;;;;;;19.83;18.83;;;27.50;99.90;;;;;;4900110;29;20549;-87
2023/07/10 09:23:00;;;;;;;20.60;19.57;;;27.60;99.90;;;;;;4902996;29;20470;-87
2023/07/10 09:25:29;;;;;;;20.97;20.03;;;27.60;99.90;;;;;;4916421;29;20458;-86
2023/07/10 09:27:59;;;;;;;19.00;18.10;;;27.70;99.90;;;;;;4904877;29;20490;-87
2023/07/10 09:30:39;;;;;;;19.90;19.00;;;27.80;99.90;;;;;;4903292;29;20493;-87
2023/07/10 09:33:10;;;;;;;20.27;19.17;;;27.80;99.90;;;;;;4905129;29;20529;-87
2023/07/10 09:35:42;;;;;;;20.00;19.00;;;27.80;99.90;;;;;;4898470;29;20459;-87
2023/07/10 09:38:12;;;;;;;19.70;18.70;;;27.80;99.90;;;;;;4901830;29;20490;-87
2023/07/10 09:40:43;;;;;;;20.77;19.73;;;27.90;99.90;;;;;;4902993;29;20519;-88
2023/07/10 09:43:20;;;;;;;19.57;18.73;;;28.00;99.90;;;;;;4903765;29;20470;-87
2023/07/10 09:45:51;;;;;;;20.13;19.23;;;28.00;99.90;;;;;;4902070;29;20461;-88
2023/07/10 09:48:25;;;;;;;19.60;18.53;;;28.10;99.90;;;;;;4902732;29;20474;-89
2023/07/10 09:50:54;;;;;;;18.93;18.13;;;28.10;99.90;;;;;;4902090;29;21004;-88
2023/07/10 09:53:30;;;;;;;18.93;18.13;;;28.10;99.90;;;;;;4899785;29;20459;-88
2023/07/10 09:55:59;;;;;;;19.67;18.77;;;28.20;99.90;;;;;;4899105;29;20860;-86
2023/07/10 09:58:29;;;;;;;20.03;19.07;;;28.30;99.90;;;;;;4903893;29;21172;-88
2023/07/10 10:01:01;;;;;;;19.57;18.73;;;28.30;99.90;;;;;;4903933;29;20844;-86
2023/07/10 10:03:34;;;;;;;21.10;20.00;;;28.30;99.90;;;;;;4900241;29;21400;-86
2023/07/10 10:06:03;;;;;;;19.40;18.53;;;28.30;99.90;;;;;;4917757;29;21289;-86
2023/07/10 10:08:44;;;;;;;19.83;18.83;;;28.30;99.90;;;;;;4904400;29;21034;-89
2023/07/10 10:11:12;;;;;;;20.33;19.43;;;28.40;99.90;;;;;;4907144;29;20554;-89
2023/07/10 10:13:44;;;;;;;20.33;19.43;;;28.40;99.90;;;;;;4901583;29;20445;-87
2023/07/10 10:16:21;;;;;;;19.20;18.40;;;28.40;99.90;;;;;;4902010;29;20453;-87
2023/07/10 10:18:53;;;;;;;21.10;20.10;;;28.30;99.90;;;;;;4904704;29;20484;-86
2023/07/10 10:21:23;;;;;;;20.10;19.17;;;28.30;99.90;;;;;;4902298;29;20542;-86
2023/07/10 10:23:53;;;;;;;19.70;18.90;;;28.20;99.90;;;;;;4901309;29;20592;-87
2023/07/10 10:26:40;;;;;;;20.13;19.10;;;28.30;99.90;;;;;;4906106;29;20470;-87
2023/07/10 10:29:36;;;;;;;19.10;18.20;;;28.30;99.90;;;;;;4903056;29;20493;-88
2023/07/10 10:32:15;;;;;;;20.60;19.60;;;28.40;99.90;;;;;;4902453;29;20634;-87
2023/07/10 10:34:47;;;;;;;19.47;18.47;;;28.30;99.90;;;;;;4903806;29;20453;-86
2023/07/10 10:37:33;;;;;;;19.40;18.50;;;28.20;99.90;;;;;;4903222;29;20528;-87
2023/07/10 10:40:13;;;;;;;20.30;19.30;;;28.10;99.90;;;;;;4902868;29;20473;-87
2023/07/10 10:42:50;;;;;;;19.33;18.43;;;28.10;99.90;;;;;;4901927;29;20675;-88
2023/07/10 10:45:28;;;;;;;19.63;18.67;;;28.10;99.90;;;;;;4898608;29;20471;-86
2023/07/10 10:48:05;;;;;;;20.87;19.57;;;28.20;99.90;;;;;;4905372;29;20505;-87
2023/07/10 10:50:55;;;;;;;20.27;19.27;;;28.30;99.90;;;;;;4907335;29;20497;-87
2023/07/10 10:53:38;;;;;;;19.43;18.40;;;28.40;99.90;;;;;;4905134;29;20454;-86
2023/07/10 10:56:18;;;;;;;20.33;19.33;;;28.40;99.90;;;;;;4905155;29;20468;-86
2023/07/10 10:59:01;;;;;;;19.40;18.50;;;28.30;99.90;;;;;;4921037;29;20457;-87
2023/07/10 11:01:36;;;;;;;19.60;18.80;;;28.30;99.90;;;;;;4905227;29;21023;-87
2023/07/10 11:07:02;;;;;;;20.77;19.87;;;28.20;99.90;;;;;;4900912;29;21848;-88
2023/07/10 11:09:42;;;;;;;20.53;19.63;;;28.30;99.90;;;;;;4900547;29;20521;-89
2023/07/10 11:12:16;;;;;;;21.00;19.90;;;28.40;99.90;;;;;;4902830;29;20482;-89
2023/07/10 11:15:05;;;;;;;19.57;18.67;;;28.40;99.90;;;;;;4905748;29;21828;-87
2023/07/10 11:17:53;;;;;;;21.17;19.97;;;28.50;99.90;;;;;;4900472;29;20492;-88
2023/07/10 11:20:36;;;;;;;19.90;18.90;;;28.50;99.90;;;;;;4914631;29;20493;-87
2023/07/10 11:24:15;;;;;;;19.20;18.40;;;28.50;99.90;;;;;;4903710;29;20474;-87
2023/07/10 11:45:53;;;;;;;15.97;15.37;;;29.10;99.90;;;;;;4846856;29;20484;-88
2023/07/10 12:03:50;;;;;;;15.60;15.00;;;29.10;99.90;;;;;;4911964;29;21191;-88
2023/07/10 12:11:43;;;;;;;15.57;14.97;;;29.10;99.90;;;;;;4831270;29;20488;-88
2023/07/10 12:14:20;;;;;;;15.77;15.07;;;29.20;99.90;;;;;;4833524;29;20505;-86
2023/07/10 12:16:54;;;;;;;15.37;14.73;;;29.20;99.90;;;;;;4837126;29;20797;-86
2023/07/10 12:24:03;;;;;;;14.90;14.30;;;29.40;99.90;;;;;;4798811;29;20620;-86
2023/07/10 12:26:38;;;;;;;15.73;14.67;;;29.40;99.90;;;;;;4798952;29;20487;-88
2023/07/10 12:30:04;;;;;;;14.43;13.83;;;29.40;99.90;;;;;;4824993;29;20479;-87
2023/07/10 12:48:50;;;;;;;;;;;;;;;;;;;;;
2023/07/10 13:17:37;;;;;;;15.00;14.50;;;29.60;99.90;;;;;;4905059;29;20584;-88
2023/07/10 13:27:32;;;;;;;15.40;14.70;;;29.80;99.90;;;;;;4907080;29;20438;-87
2023/07/10 13:35:39;;;;;;;15.03;14.33;;;29.70;99.90;;;;;;4891432;29;20465;-86
2023/07/10 13:38:31;;;;;;;14.93;14.30;;;29.70;99.90;;;;;;4891661;29;20526;-86
2023/07/10 13:41:34;;;;;;;15.67;14.80;;;29.70;99.90;;;;;;4894441;29;21027;-86
2023/07/10 13:44:37;;;;;;;15.30;14.57;;;29.70;99.90;;;;;;4821189;29;20462;-87
2023/07/10 13:47:32;;;;;;;15.67;15.00;;;29.70;99.90;;;;;;4824524;29;20557;-86
2023/07/10 13:53:00;;;;;;;14.17;13.60;;;29.70;99.90;;;;;;4968047;23;20514;-86
2023/07/10 13:55:48;;;;;;;14.77;14.13;;;29.70;99.90;;;;;;4901580;29;20461;-86
2023/07/10 13:58:18;;;;;;;15.57;14.93;;;29.70;99.90;;;;;;4896456;29;20468;-87
2023/07/10 14:00:47;;;;;;;15.23;14.50;;;29.70;99.90;;;;;;4898378;29;20589;-88
2023/07/10 14:03:18;;;;;;;14.80;14.20;;;29.70;99.90;;;;;;4892403;29;20458;-87
2023/07/10 14:05:48;;;;;;;15.00;14.30;;;29.70;99.90;;;;;;4894105;29;21041;-87
2023/07/10 14:08:26;;;;;;;14.63;14.10;;;29.80;99.90;;;;;;4897885;29;20545;-87
2023/07/10 14:10:57;;;;;;;15.13;14.53;;;29.80;99.90;;;;;;4892878;29;21075;-86
2023/07/10 14:13:26;;;;;;;14.97;14.37;;;29.80;99.90;;;;;;4897376;29;20550;-87
2023/07/10 14:16:07;;;;;;;14.47;13.77;;;29.90;99.90;;;;;;4898589;29;20819;-87
2023/07/10 14:22:32;;;;;;;15.30;14.50;;;29.90;99.90;;;;;;4893486;29;20483;-87
2023/07/10 14:25:04;;;;;;;14.30;13.70;;;29.90;99.90;;;;;;4869614;29;21379;-87
2023/07/10 14:27:33;;;;;;;15.47;14.83;;;29.90;99.90;;;;;;4895180;29;20458;-86
2023/07/10 14:30:23;;;;;;;14.40;13.63;;;29.90;99.90;;;;;;4892157;29;20462;-86
2023/07/10 14:32:52;;;;;;;15.50;14.90;;;29.90;99.90;;;;;;4875154;29;20466;-86
2023/07/10 14:35:30;;;;;;;15.80;15.10;;;29.90;99.90;;;;;;4892197;29;21098;-86
2023/07/10 14:37:59;;;;;;;15.40;14.70;;;29.90;99.90;;;;;;4896969;29;20465;-86
2023/07/10 14:40:27;;;;;;;14.83;14.33;;;29.90;99.90;;;;;;4895972;29;21008;-86
2023/07/10 14:43:39;;;;;;;14.10;13.47;;;29.90;99.90;;;;;;4899673;29;20458;-86
2023/07/10 14:46:27;;;;;;;14.17;13.47;;;30.00;99.90;;;;;;4894237;29;20489;-86
2023/07/10 14:52:54;;;;;;;14.83;14.03;;;29.90;99.90;;;;;;4861351;29;20471;-85
2023/07/10 14:59:17;;;;;;;15.60;14.73;;;30.00;99.90;;;;;;4891827;29;20463;-86
2023/07/10 15:01:47;;;;;;;15.40;14.70;;;29.90;99.90;;;;;;4891280;29;20488;-86
2023/07/10 15:04:16;;;;;;;14.50;13.60;;;29.80;99.90;;;;;;4894692;29;20918;-86
2023/07/10 15:06:45;;;;;;;14.30;13.70;;;29.90;99.90;;;;;;4899252;29;20480;-86
2023/07/10 15:15:50;;;;;;;14.07;13.57;;;29.80;99.90;;;;;;4883011;29;21016;-86
2023/07/10 15:18:25;;;;;;;14.90;14.10;;;29.80;99.90;;;;;;4883500;29;20466;-86
2023/07/10 15:31:36;;;;;;;13.10;12.60;;;29.80;99.90;;;;;;4870099;29;20654;-87
2023/07/10 15:34:14;;;;;;;14.50;13.90;;;29.70;99.90;;;;;;4866928;29;20467;-86
2023/07/10 15:40:17;;;;;;;14.30;13.80;;;29.70;99.90;;;;;;4865289;29;20465;-85
2023/07/10 15:47:44;;;;;;;14.97;14.27;;;29.70;99.90;;;;;;4866146;29;20507;-84
2023/07/10 15:50:15;;;;;;;15.07;14.47;;;29.60;99.90;;;;;;4873629;29;20693;-86
2023/07/10 15:52:49;;;;;;;15.20;14.30;;;29.60;99.90;;;;;;4863033;29;20894;-85
2023/07/10 15:55:20;;;;;;;14.87;14.27;;;29.60;99.90;;;;;;4865667;29;20462;-85
2023/07/10 15:57:50;;;;;;;15.10;14.47;;;29.60;99.90;;;;;;4881599;29;20456;-85
2023/07/10 16:00:24;;;;;;;14.60;13.90;;;29.50;99.90;;;;;;4869430;29;20456;-86
2023/07/10 16:02:54;;;;;;;15.77;14.50;;;29.60;99.90;;;;;;4867023;29;20460;-85
2023/07/10 16:05:26;;;;;;;15.30;14.70;;;29.50;99.90;;;;;;4867969;29;20466;-85
2023/07/10 16:07:56;;;;;;;15.17;14.47;;;29.50;99.90;;;;;;4853875;29;20567;-85
2023/07/10 16:14:24;;;;;;;15.77;15.10;;;29.50;99.90;;;;;;4865677;29;20467;-85